sensor_id;sensor_type;location;lat;lon;timestamp;P1;durP1;ratioP1;P2;durP2;ratioP2
8411;SDS011;4243;49.296;11.348;2023-06-22T00:00:13;120.23;;;3.17;;
8411;SDS011;4243;49.296;11.348;2023-06-22T00:02:40;120.07;;;3.10;;
8411;SDS011;4243;49.296;11.348;2023-06-22T00:05:07;119.90;;;3.13;;
8411;SDS011;4243;49.296;11.348;2023-06-22T00:07:35;119.80;;;2.90;;
8411;SDS011;4243;49.296;11.348;2023-06-22T00:10:03;120.67;;;3.20;;
8411;SDS011;4243;49.296;11.348;2023-06-22T00:12:31;120.43;;;3.07;;
8411;SDS011;4243;49.296;11.348;2023-06-22T00:14:58;120.20;;;2.97;;
8411;SDS011;4243;49.296;11.348;2023-06-22T00:17:26;120.40;;;3.10;;
8411;SDS011;4243;49.296;11.348;2023-06-22T00:19:53;119.60;;;2.97;;
8411;SDS011;4243;49.296;11.348;2023-06-22T00:22:21;120.10;;;3.03;;
8411;SDS011;4243;49.296;11.348;2023-06-22T00:24:55;119.70;;;2.67;;
8411;SDS011;4243;49.296;11.348;2023-06-22T00:27:23;119.73;;;2.83;;
8411;SDS011;4243;49.296;11.348;2023-06-22T00:29:50;119.80;;;2.80;;
8411;SDS011;4243;49.296;11.348;2023-06-22T00:32:17;119.90;;;3.00;;
8411;SDS011;4243;49.296;11.348;2023-06-22T00:34:46;120.10;;;3.03;;
8411;SDS011;4243;49.296;11.348;2023-06-22T00:37:14;119.80;;;2.80;;
8411;SDS011;4243;49.296;11.348;2023-06-22T00:39:44;119.77;;;2.90;;
8411;SDS011;4243;49.296;11.348;2023-06-22T00:42:11;119.77;;;2.80;;
8411;SDS011;4243;49.296;11.348;2023-06-22T00:44:39;120.17;;;2.80;;
8411;SDS011;4243;49.296;11.348;2023-06-22T00:47:06;119.47;;;2.77;;
8411;SDS011;4243;49.296;11.348;2023-06-22T00:49:34;119.90;;;2.67;;
8411;SDS011;4243;49.296;11.348;2023-06-22T00:52:01;119.60;;;2.70;;
8411;SDS011;4243;49.296;11.348;2023-06-22T00:54:29;119.93;;;2.70;;
8411;SDS011;4243;49.296;11.348;2023-06-22T00:56:59;120.03;;;2.60;;
8411;SDS011;4243;49.296;11.348;2023-06-22T00:59:27;120.30;;;2.60;;
8411;SDS011;4243;49.296;11.348;2023-06-22T01:01:54;119.67;;;2.57;;
8411;SDS011;4243;49.296;11.348;2023-06-22T01:04:23;120.13;;;2.50;;
8411;SDS011;4243;49.296;11.348;2023-06-22T01:10:08;119.70;;;2.57;;
8411;SDS011;4243;49.296;11.348;2023-06-22T01:13:04;119.60;;;2.50;;
8411;SDS011;4243;49.296;11.348;2023-06-22T01:15:49;120.00;;;2.50;;
8411;SDS011;4243;49.296;11.348;2023-06-22T01:18:32;120.17;;;2.57;;
8411;SDS011;4243;49.296;11.348;2023-06-22T01:21:06;119.87;;;2.50;;
8411;SDS011;4243;49.296;11.348;2023-06-22T01:23:50;120.27;;;2.50;;
8411;SDS011;4243;49.296;11.348;2023-06-22T01:29:59;120.00;;;2.47;;
8411;SDS011;4243;49.296;11.348;2023-06-22T01:32:34;120.00;;;2.60;;
8411;SDS011;4243;49.296;11.348;2023-06-22T01:35:05;119.70;;;2.63;;
8411;SDS011;4243;49.296;11.348;2023-06-22T01:37:35;120.30;;;2.60;;
8411;SDS011;4243;49.296;11.348;2023-06-22T01:40:04;119.83;;;2.70;;
8411;SDS011;4243;49.296;11.348;2023-06-22T01:42:35;120.27;;;2.60;;
8411;SDS011;4243;49.296;11.348;2023-06-22T01:45:06;120.10;;;2.60;;
8411;SDS011;4243;49.296;11.348;2023-06-22T01:47:36;120.20;;;2.60;;
8411;SDS011;4243;49.296;11.348;2023-06-22T01:50:05;120.20;;;2.67;;
8411;SDS011;4243;49.296;11.348;2023-06-22T01:52:33;120.00;;;2.70;;
8411;SDS011;4243;49.296;11.348;2023-06-22T01:55:01;119.97;;;2.70;;
8411;SDS011;4243;49.296;11.348;2023-06-22T01:57:30;120.30;;;2.57;;
8411;SDS011;4243;49.296;11.348;2023-06-22T02:05:34;119.10;;;2.50;;
8411;SDS011;4243;49.296;11.348;2023-06-22T02:08:15;120.40;;;2.57;;
8411;SDS011;4243;49.296;11.348;2023-06-22T02:10:50;119.90;;;2.53;;
8411;SDS011;4243;49.296;11.348;2023-06-22T02:13:19;120.30;;;2.60;;
8411;SDS011;4243;49.296;11.348;2023-06-22T02:15:47;120.37;;;2.60;;
8411;SDS011;4243;49.296;11.348;2023-06-22T02:18:15;120.40;;;2.70;;
8411;SDS011;4243;49.296;11.348;2023-06-22T02:20:42;120.87;;;2.63;;
8411;SDS011;4243;49.296;11.348;2023-06-22T02:23:10;119.87;;;2.70;;
8411;SDS011;4243;49.296;11.348;2023-06-22T02:25:37;120.30;;;2.97;;
8411;SDS011;4243;49.296;11.348;2023-06-22T02:28:05;120.43;;;2.87;;
8411;SDS011;4243;49.296;11.348;2023-06-22T02:30:33;121.03;;;2.90;;
8411;SDS011;4243;49.296;11.348;2023-06-22T02:33:00;119.80;;;2.90;;
8411;SDS011;4243;49.296;11.348;2023-06-22T02:35:28;120.10;;;2.80;;
8411;SDS011;4243;49.296;11.348;2023-06-22T02:37:58;120.40;;;2.80;;
8411;SDS011;4243;49.296;11.348;2023-06-22T02:40:27;120.50;;;2.90;;
8411;SDS011;4243;49.296;11.348;2023-06-22T02:42:56;119.57;;;2.87;;
8411;SDS011;4243;49.296;11.348;2023-06-22T02:45:27;120.50;;;3.17;;
8411;SDS011;4243;49.296;11.348;2023-06-22T02:47:56;120.10;;;2.97;;
8411;SDS011;4243;49.296;11.348;2023-06-22T02:50:24;120.50;;;3.00;;
8411;SDS011;4243;49.296;11.348;2023-06-22T02:52:52;121.00;;;3.20;;
8411;SDS011;4243;49.296;11.348;2023-06-22T02:55:20;120.67;;;2.90;;
8411;SDS011;4243;49.296;11.348;2023-06-22T02:57:53;119.73;;;2.90;;
8411;SDS011;4243;49.296;11.348;2023-06-22T03:00:21;119.67;;;2.90;;
8411;SDS011;4243;49.296;11.348;2023-06-22T03:02:49;119.37;;;2.80;;
8411;SDS011;4243;49.296;11.348;2023-06-22T03:05:17;119.77;;;2.93;;
8411;SDS011;4243;49.296;11.348;2023-06-22T03:07:47;119.43;;;2.90;;
8411;SDS011;4243;49.296;11.348;2023-06-22T03:10:15;120.20;;;2.93;;
8411;SDS011;4243;49.296;11.348;2023-06-22T03:12:43;120.10;;;3.00;;
8411;SDS011;4243;49.296;11.348;2023-06-22T03:15:12;119.73;;;2.80;;
8411;SDS011;4243;49.296;11.348;2023-06-22T03:17:39;120.17;;;2.97;;
8411;SDS011;4243;49.296;11.348;2023-06-22T03:20:08;120.10;;;2.90;;
8411;SDS011;4243;49.296;11.348;2023-06-22T03:22:37;119.90;;;3.07;;
8411;SDS011;4243;49.296;11.348;2023-06-22T03:25:07;120.00;;;2.90;;
8411;SDS011;4243;49.296;11.348;2023-06-22T03:27:42;120.67;;;3.10;;
8411;SDS011;4243;49.296;11.348;2023-06-22T03:30:10;120.20;;;2.83;;
8411;SDS011;4243;49.296;11.348;2023-06-22T03:32:38;120.07;;;2.97;;
8411;SDS011;4243;49.296;11.348;2023-06-22T03:35:06;119.57;;;3.07;;
8411;SDS011;4243;49.296;11.348;2023-06-22T03:37:35;120.20;;;3.17;;
8411;SDS011;4243;49.296;11.348;2023-06-22T03:40:04;120.50;;;3.23;;
8411;SDS011;4243;49.296;11.348;2023-06-22T03:42:33;120.43;;;3.57;;
8411;SDS011;4243;49.296;11.348;2023-06-22T03:45:04;120.47;;;3.60;;
8411;SDS011;4243;49.296;11.348;2023-06-22T03:47:32;120.07;;;3.77;;
8411;SDS011;4243;49.296;11.348;2023-06-22T03:50:00;120.47;;;3.60;;
8411;SDS011;4243;49.296;11.348;2023-06-22T03:52:29;120.30;;;3.73;;
8411;SDS011;4243;49.296;11.348;2023-06-22T03:54:57;120.60;;;3.93;;
8411;SDS011;4243;49.296;11.348;2023-06-22T03:57:25;120.87;;;3.67;;
8411;SDS011;4243;49.296;11.348;2023-06-22T03:59:52;120.37;;;3.90;;
8411;SDS011;4243;49.296;11.348;2023-06-22T04:02:22;120.80;;;4.00;;
8411;SDS011;4243;49.296;11.348;2023-06-22T04:04:50;120.13;;;3.73;;
8411;SDS011;4243;49.296;11.348;2023-06-22T04:07:17;120.30;;;3.87;;
8411;SDS011;4243;49.296;11.348;2023-06-22T04:09:45;120.27;;;4.00;;
8411;SDS011;4243;49.296;11.348;2023-06-22T04:12:12;120.77;;;4.20;;
8411;SDS011;4243;49.296;11.348;2023-06-22T04:14:39;120.60;;;4.20;;
8411;SDS011;4243;49.296;11.348;2023-06-22T04:17:07;120.77;;;4.27;;
8411;SDS011;4243;49.296;11.348;2023-06-22T04:19:34;120.50;;;4.23;;
8411;SDS011;4243;49.296;11.348;2023-06-22T04:22:02;119.93;;;4.47;;
8411;SDS011;4243;49.296;11.348;2023-06-22T04:24:29;120.00;;;3.87;;
8411;SDS011;4243;49.296;11.348;2023-06-22T04:26:57;119.97;;;3.73;;
8411;SDS011;4243;49.296;11.348;2023-06-22T04:29:29;119.97;;;4.10;;
8411;SDS011;4243;49.296;11.348;2023-06-22T04:31:57;119.77;;;3.90;;
8411;SDS011;4243;49.296;11.348;2023-06-22T04:34:24;119.63;;;3.50;;
8411;SDS011;4243;49.296;11.348;2023-06-22T04:36:55;119.53;;;3.53;;
8411;SDS011;4243;49.296;11.348;2023-06-22T04:39:22;120.27;;;3.50;;
8411;SDS011;4243;49.296;11.348;2023-06-22T04:41:50;119.80;;;3.50;;
8411;SDS011;4243;49.296;11.348;2023-06-22T04:44:18;119.53;;;3.47;;
8411;SDS011;4243;49.296;11.348;2023-06-22T04:46:52;119.80;;;3.40;;
8411;SDS011;4243;49.296;11.348;2023-06-22T04:49:28;119.17;;;3.43;;
8411;SDS011;4243;49.296;11.348;2023-06-22T04:52:00;119.30;;;3.27;;
8411;SDS011;4243;49.296;11.348;2023-06-22T04:54:39;119.07;;;3.20;;
8411;SDS011;4243;49.296;11.348;2023-06-22T04:57:14;118.87;;;3.33;;
8411;SDS011;4243;49.296;11.348;2023-06-22T04:59:41;119.17;;;3.23;;
8411;SDS011;4243;49.296;11.348;2023-06-22T05:02:08;118.77;;;3.57;;
8411;SDS011;4243;49.296;11.348;2023-06-22T05:04:36;118.90;;;3.50;;
8411;SDS011;4243;49.296;11.348;2023-06-22T05:07:07;118.80;;;3.67;;
8411;SDS011;4243;49.296;11.348;2023-06-22T05:09:35;118.67;;;3.80;;
8411;SDS011;4243;49.296;11.348;2023-06-22T05:12:03;118.90;;;4.30;;
8411;SDS011;4243;49.296;11.348;2023-06-22T05:14:33;119.07;;;4.23;;
8411;SDS011;4243;49.296;11.348;2023-06-22T05:17:01;118.90;;;4.10;;
8411;SDS011;4243;49.296;11.348;2023-06-22T05:19:30;118.50;;;4.33;;
8411;SDS011;4243;49.296;11.348;2023-06-22T05:21:59;119.07;;;4.60;;
8411;SDS011;4243;49.296;11.348;2023-06-22T05:24:27;118.80;;;4.67;;
8411;SDS011;4243;49.296;11.348;2023-06-22T05:26:54;118.60;;;4.17;;
8411;SDS011;4243;49.296;11.348;2023-06-22T05:29:21;118.57;;;3.43;;
8411;SDS011;4243;49.296;11.348;2023-06-22T05:31:49;117.10;;;2.87;;
8411;SDS011;4243;49.296;11.348;2023-06-22T05:34:17;118.17;;;2.60;;
8411;SDS011;4243;49.296;11.348;2023-06-22T05:36:44;117.40;;;2.47;;
8411;SDS011;4243;49.296;11.348;2023-06-22T05:39:12;117.17;;;2.50;;
8411;SDS011;4243;49.296;11.348;2023-06-22T05:41:41;117.37;;;2.80;;
8411;SDS011;4243;49.296;11.348;2023-06-22T05:44:09;117.20;;;3.87;;
8411;SDS011;4243;49.296;11.348;2023-06-22T05:46:39;118.10;;;4.63;;
8411;SDS011;4243;49.296;11.348;2023-06-22T05:49:14;119.13;;;5.83;;
8411;SDS011;4243;49.296;11.348;2023-06-22T05:51:42;119.20;;;6.77;;
8411;SDS011;4243;49.296;11.348;2023-06-22T05:54:10;117.20;;;6.07;;
8411;SDS011;4243;49.296;11.348;2023-06-22T05:56:39;117.20;;;6.00;;
8411;SDS011;4243;49.296;11.348;2023-06-22T05:59:07;118.87;;;7.47;;
8411;SDS011;4243;49.296;11.348;2023-06-22T06:01:34;118.40;;;8.93;;
8411;SDS011;4243;49.296;11.348;2023-06-22T06:04:02;120.07;;;8.97;;
8411;SDS011;4243;49.296;11.348;2023-06-22T06:06:30;119.00;;;7.87;;
8411;SDS011;4243;49.296;11.348;2023-06-22T06:08:57;119.33;;;7.13;;
8411;SDS011;4243;49.296;11.348;2023-06-22T06:11:25;118.60;;;5.80;;
8411;SDS011;4243;49.296;11.348;2023-06-22T06:13:53;118.67;;;6.83;;
8411;SDS011;4243;49.296;11.348;2023-06-22T06:16:21;118.10;;;7.20;;
8411;SDS011;4243;49.296;11.348;2023-06-22T06:18:49;117.20;;;6.17;;
8411;SDS011;4243;49.296;11.348;2023-06-22T06:21:16;117.37;;;6.27;;
8411;SDS011;4243;49.296;11.348;2023-06-22T06:23:44;118.20;;;5.93;;
8411;SDS011;4243;49.296;11.348;2023-06-22T06:26:13;118.17;;;6.90;;
8411;SDS011;4243;49.296;11.348;2023-06-22T06:28:43;118.87;;;6.90;;
8411;SDS011;4243;49.296;11.348;2023-06-22T06:31:14;118.40;;;6.60;;
8411;SDS011;4243;49.296;11.348;2023-06-22T06:33:43;117.93;;;6.70;;
8411;SDS011;4243;49.296;11.348;2023-06-22T06:36:11;117.83;;;7.33;;
8411;SDS011;4243;49.296;11.348;2023-06-22T06:38:38;116.77;;;6.87;;
8411;SDS011;4243;49.296;11.348;2023-06-22T06:41:06;117.50;;;6.60;;
8411;SDS011;4243;49.296;11.348;2023-06-22T06:43:33;116.40;;;5.40;;
8411;SDS011;4243;49.296;11.348;2023-06-22T06:46:00;115.93;;;5.30;;
8411;SDS011;4243;49.296;11.348;2023-06-22T06:48:29;116.50;;;4.70;;
8411;SDS011;4243;49.296;11.348;2023-06-22T06:50:57;115.70;;;4.90;;
8411;SDS011;4243;49.296;11.348;2023-06-22T06:53:24;117.00;;;5.80;;
8411;SDS011;4243;49.296;11.348;2023-06-22T06:55:51;117.00;;;5.20;;
8411;SDS011;4243;49.296;11.348;2023-06-22T06:58:19;115.70;;;4.60;;
8411;SDS011;4243;49.296;11.348;2023-06-22T07:00:49;115.80;;;4.80;;
8411;SDS011;4243;49.296;11.348;2023-06-22T07:03:16;115.00;;;5.10;;
8411;SDS011;4243;49.296;11.348;2023-06-22T07:05:43;116.00;;;5.00;;
8411;SDS011;4243;49.296;11.348;2023-06-22T07:08:10;116.60;;;5.70;;
8411;SDS011;4243;49.296;11.348;2023-06-22T07:10:38;116.37;;;5.47;;
8411;SDS011;4243;49.296;11.348;2023-06-22T07:13:05;116.60;;;6.03;;
8411;SDS011;4243;49.296;11.348;2023-06-22T07:15:32;115.90;;;6.10;;
8411;SDS011;4243;49.296;11.348;2023-06-22T07:18:00;116.37;;;5.93;;
8411;SDS011;4243;49.296;11.348;2023-06-22T07:20:28;115.57;;;6.30;;
8411;SDS011;4243;49.296;11.348;2023-06-22T07:22:55;116.10;;;5.90;;
8411;SDS011;4243;49.296;11.348;2023-06-22T07:25:24;115.30;;;4.43;;
8411;SDS011;4243;49.296;11.348;2023-06-22T07:27:59;114.87;;;3.80;;
8411;SDS011;4243;49.296;11.348;2023-06-22T07:30:30;114.47;;;3.27;;
8411;SDS011;4243;49.296;11.348;2023-06-22T07:32:59;114.00;;;2.80;;
8411;SDS011;4243;49.296;11.348;2023-06-22T07:35:31;114.17;;;2.50;;
8411;SDS011;4243;49.296;11.348;2023-06-22T07:37:58;114.10;;;2.77;;
8411;SDS011;4243;49.296;11.348;2023-06-22T07:40:31;114.27;;;2.80;;
8411;SDS011;4243;49.296;11.348;2023-06-22T07:42:58;113.67;;;2.70;;
8411;SDS011;4243;49.296;11.348;2023-06-22T07:45:26;113.13;;;2.90;;
8411;SDS011;4243;49.296;11.348;2023-06-22T07:47:53;112.90;;;2.90;;
8411;SDS011;4243;49.296;11.348;2023-06-22T07:50:21;113.03;;;2.27;;
8411;SDS011;4243;49.296;11.348;2023-06-22T07:52:48;112.33;;;2.43;;
8411;SDS011;4243;49.296;11.348;2023-06-22T07:55:17;111.73;;;2.37;;
8411;SDS011;4243;49.296;11.348;2023-06-22T07:57:47;112.37;;;3.73;;
8411;SDS011;4243;49.296;11.348;2023-06-22T08:03:36;110.33;;;2.73;;
8411;SDS011;4243;49.296;11.348;2023-06-22T08:06:06;110.17;;;3.60;;
8411;SDS011;4243;49.296;11.348;2023-06-22T08:08:36;113.90;;;11.20;;
8411;SDS011;4243;49.296;11.348;2023-06-22T08:11:03;113.97;;;10.07;;
8411;SDS011;4243;49.296;11.348;2023-06-22T08:13:32;110.40;;;5.00;;
8411;SDS011;4243;49.296;11.348;2023-06-22T08:15:59;109.20;;;3.00;;
8411;SDS011;4243;49.296;11.348;2023-06-22T08:18:27;107.77;;;1.97;;
8411;SDS011;4243;49.296;11.348;2023-06-22T08:20:55;107.57;;;2.87;;
8411;SDS011;4243;49.296;11.348;2023-06-22T08:23:22;111.50;;;9.90;;
8411;SDS011;4243;49.296;11.348;2023-06-22T08:25:50;109.70;;;6.70;;
8411;SDS011;4243;49.296;11.348;2023-06-22T08:28:17;107.73;;;5.07;;
8411;SDS011;4243;49.296;11.348;2023-06-22T08:30:45;108.47;;;6.10;;
8411;SDS011;4243;49.296;11.348;2023-06-22T08:33:12;106.37;;;5.40;;
8411;SDS011;4243;49.296;11.348;2023-06-22T08:35:52;105.80;;;2.30;;
8411;SDS011;4243;49.296;11.348;2023-06-22T08:38:24;105.87;;;3.40;;
8411;SDS011;4243;49.296;11.348;2023-06-22T08:40:51;107.67;;;7.63;;
8411;SDS011;4243;49.296;11.348;2023-06-22T08:43:19;107.57;;;7.90;;
8411;SDS011;4243;49.296;11.348;2023-06-22T08:45:47;105.77;;;5.97;;
8411;SDS011;4243;49.296;11.348;2023-06-22T08:48:14;103.27;;;1.40;;
8411;SDS011;4243;49.296;11.348;2023-06-22T08:50:41;102.90;;;2.37;;
8411;SDS011;4243;49.296;11.348;2023-06-22T08:53:08;106.90;;;9.77;;
8411;SDS011;4243;49.296;11.348;2023-06-22T08:55:35;111.17;;;19.83;;
8411;SDS011;4243;49.296;11.348;2023-06-22T08:58:03;115.17;;;29.27;;
8411;SDS011;4243;49.296;11.348;2023-06-22T09:00:33;112.27;;;22.57;;
8411;SDS011;4243;49.296;11.348;2023-06-22T09:03:02;106.67;;;11.53;;
8411;SDS011;4243;49.296;11.348;2023-06-22T09:05:29;101.17;;;3.03;;
8411;SDS011;4243;49.296;11.348;2023-06-22T09:07:57;101.07;;;2.10;;
8411;SDS011;4243;49.296;11.348;2023-06-22T09:10:25;99.87;;;1.77;;
8411;SDS011;4243;49.296;11.348;2023-06-22T09:12:53;100.57;;;2.00;;
8411;SDS011;4243;49.296;11.348;2023-06-22T09:15:20;101.27;;;2.20;;
8411;SDS011;4243;49.296;11.348;2023-06-22T09:17:48;99.93;;;1.93;;
8411;SDS011;4243;49.296;11.348;2023-06-22T09:20:15;101.03;;;1.70;;
8411;SDS011;4243;49.296;11.348;2023-06-22T09:22:43;101.73;;;1.90;;
8411;SDS011;4243;49.296;11.348;2023-06-22T09:25:10;101.90;;;1.90;;
8411;SDS011;4243;49.296;11.348;2023-06-22T09:27:38;101.87;;;2.23;;
8411;SDS011;4243;49.296;11.348;2023-06-22T09:30:06;100.77;;;1.93;;
8411;SDS011;4243;49.296;11.348;2023-06-22T09:32:34;101.97;;;2.53;;
8411;SDS011;4243;49.296;11.348;2023-06-22T09:35:04;102.50;;;2.77;;
8411;SDS011;4243;49.296;11.348;2023-06-22T09:37:32;102.67;;;3.13;;
8411;SDS011;4243;49.296;11.348;2023-06-22T09:40:00;102.20;;;2.90;;
8411;SDS011;4243;49.296;11.348;2023-06-22T09:42:34;103.47;;;3.77;;
8411;SDS011;4243;49.296;11.348;2023-06-22T09:45:02;104.00;;;3.53;;
8411;SDS011;4243;49.296;11.348;2023-06-22T09:47:30;103.57;;;3.20;;
8411;SDS011;4243;49.296;11.348;2023-06-22T09:49:58;102.47;;;3.20;;
8411;SDS011;4243;49.296;11.348;2023-06-22T09:52:26;102.60;;;3.13;;
8411;SDS011;4243;49.296;11.348;2023-06-22T09:55:08;103.70;;;4.00;;
8411;SDS011;4243;49.296;11.348;2023-06-22T09:57:36;102.90;;;4.07;;
8411;SDS011;4243;49.296;11.348;2023-06-22T10:00:03;103.80;;;4.47;;
8411;SDS011;4243;49.296;11.348;2023-06-22T10:02:35;104.40;;;5.43;;
8411;SDS011;4243;49.296;11.348;2023-06-22T10:05:02;103.90;;;3.00;;
8411;SDS011;4243;49.296;11.348;2023-06-22T10:07:30;105.20;;;2.70;;
8411;SDS011;4243;49.296;11.348;2023-06-22T10:09:58;104.93;;;2.90;;
8411;SDS011;4243;49.296;11.348;2023-06-22T10:12:26;104.27;;;2.47;;
8411;SDS011;4243;49.296;11.348;2023-06-22T10:14:54;103.57;;;2.70;;
8411;SDS011;4243;49.296;11.348;2023-06-22T10:17:22;105.10;;;5.00;;
8411;SDS011;4243;49.296;11.348;2023-06-22T10:19:49;103.77;;;5.57;;
8411;SDS011;4243;49.296;11.348;2023-06-22T10:22:17;103.37;;;4.70;;
8411;SDS011;4243;49.296;11.348;2023-06-22T10:24:44;103.87;;;5.50;;
8411;SDS011;4243;49.296;11.348;2023-06-22T10:27:12;104.27;;;6.00;;
8411;SDS011;4243;49.296;11.348;2023-06-22T10:29:40;104.10;;;5.93;;
8411;SDS011;4243;49.296;11.348;2023-06-22T10:32:08;102.97;;;6.27;;
8411;SDS011;4243;49.296;11.348;2023-06-22T10:34:35;103.97;;;5.23;;
8411;SDS011;4243;49.296;11.348;2023-06-22T10:37:03;104.40;;;6.53;;
8411;SDS011;4243;49.296;11.348;2023-06-22T10:39:30;102.00;;;5.30;;
8411;SDS011;4243;49.296;11.348;2023-06-22T10:41:57;103.50;;;6.00;;
8411;SDS011;4243;49.296;11.348;2023-06-22T10:44:25;103.37;;;7.00;;
8411;SDS011;4243;49.296;11.348;2023-06-22T10:46:52;103.27;;;6.53;;
8411;SDS011;4243;49.296;11.348;2023-06-22T10:49:20;103.30;;;6.87;;
8411;SDS011;4243;49.296;11.348;2023-06-22T10:51:47;104.27;;;6.87;;
8411;SDS011;4243;49.296;11.348;2023-06-22T10:54:15;103.47;;;6.30;;
8411;SDS011;4243;49.296;11.348;2023-06-22T10:56:44;103.23;;;6.50;;
8411;SDS011;4243;49.296;11.348;2023-06-22T10:59:11;103.30;;;6.77;;
8411;SDS011;4243;49.296;11.348;2023-06-22T11:01:38;102.37;;;5.50;;
8411;SDS011;4243;49.296;11.348;2023-06-22T11:04:06;101.00;;;3.87;;
8411;SDS011;4243;49.296;11.348;2023-06-22T11:06:34;100.77;;;3.67;;
8411;SDS011;4243;49.296;11.348;2023-06-22T11:09:02;99.60;;;2.80;;
8411;SDS011;4243;49.296;11.348;2023-06-22T11:11:49;99.80;;;1.73;;
8411;SDS011;4243;49.296;11.348;2023-06-22T11:14:21;98.50;;;2.10;;
8411;SDS011;4243;49.296;11.348;2023-06-22T11:16:49;98.00;;;2.40;;
8411;SDS011;4243;49.296;11.348;2023-06-22T11:19:16;97.80;;;2.27;;
8411;SDS011;4243;49.296;11.348;2023-06-22T11:21:44;98.10;;;2.43;;
8411;SDS011;4243;49.296;11.348;2023-06-22T11:24:11;98.40;;;3.23;;
8411;SDS011;4243;49.296;11.348;2023-06-22T11:26:39;97.97;;;3.60;;
8411;SDS011;4243;49.296;11.348;2023-06-22T11:29:06;97.70;;;4.30;;
8411;SDS011;4243;49.296;11.348;2023-06-22T11:31:37;96.70;;;2.97;;
8411;SDS011;4243;49.296;11.348;2023-06-22T11:34:05;96.10;;;2.60;;
8411;SDS011;4243;49.296;11.348;2023-06-22T11:36:32;95.40;;;1.60;;
8411;SDS011;4243;49.296;11.348;2023-06-22T11:39:01;94.90;;;1.20;;
8411;SDS011;4243;49.296;11.348;2023-06-22T11:41:34;95.37;;;1.10;;
8411;SDS011;4243;49.296;11.348;2023-06-22T11:44:01;95.20;;;1.47;;
8411;SDS011;4243;49.296;11.348;2023-06-22T11:46:30;96.03;;;1.97;;
8411;SDS011;4243;49.296;11.348;2023-06-22T11:48:58;96.30;;;2.33;;
8411;SDS011;4243;49.296;11.348;2023-06-22T11:51:26;96.30;;;2.07;;
8411;SDS011;4243;49.296;11.348;2023-06-22T11:53:53;95.80;;;1.80;;
8411;SDS011;4243;49.296;11.348;2023-06-22T11:56:21;95.60;;;1.63;;
8411;SDS011;4243;49.296;11.348;2023-06-22T11:58:48;96.50;;;2.83;;
8411;SDS011;4243;49.296;11.348;2023-06-22T12:01:15;96.90;;;3.30;;
8411;SDS011;4243;49.296;11.348;2023-06-22T12:03:43;96.10;;;2.90;;
8411;SDS011;4243;49.296;11.348;2023-06-22T12:06:11;96.07;;;2.87;;
8411;SDS011;4243;49.296;11.348;2023-06-22T12:08:38;96.17;;;3.20;;
8411;SDS011;4243;49.296;11.348;2023-06-22T12:11:06;96.73;;;2.83;;
8411;SDS011;4243;49.296;11.348;2023-06-22T12:13:33;97.47;;;5.03;;
8411;SDS011;4243;49.296;11.348;2023-06-22T12:16:01;99.90;;;7.77;;
8411;SDS011;4243;49.296;11.348;2023-06-22T12:18:28;99.80;;;7.30;;
8411;SDS011;4243;49.296;11.348;2023-06-22T12:20:56;97.97;;;5.23;;
8411;SDS011;4243;49.296;11.348;2023-06-22T12:23:25;97.60;;;4.30;;
8411;SDS011;4243;49.296;11.348;2023-06-22T12:25:53;97.90;;;3.87;;
8411;SDS011;4243;49.296;11.348;2023-06-22T12:28:20;98.00;;;4.20;;
8411;SDS011;4243;49.296;11.348;2023-06-22T12:30:49;98.10;;;4.80;;
8411;SDS011;4243;49.296;11.348;2023-06-22T12:33:16;98.57;;;4.97;;
8411;SDS011;4243;49.296;11.348;2023-06-22T12:35:45;98.77;;;5.37;;
8411;SDS011;4243;49.296;11.348;2023-06-22T12:38:15;99.03;;;5.10;;
8411;SDS011;4243;49.296;11.348;2023-06-22T12:40:42;100.87;;;7.80;;
8411;SDS011;4243;49.296;11.348;2023-06-22T12:43:11;101.97;;;9.20;;
8411;SDS011;4243;49.296;11.348;2023-06-22T12:45:42;100.77;;;8.50;;
8411;SDS011;4243;49.296;11.348;2023-06-22T12:48:10;101.43;;;9.80;;
8411;SDS011;4243;49.296;11.348;2023-06-22T12:50:39;102.10;;;9.97;;
8411;SDS011;4243;49.296;11.348;2023-06-22T12:53:07;101.40;;;8.17;;
8411;SDS011;4243;49.296;11.348;2023-06-22T12:55:37;102.50;;;10.50;;
8411;SDS011;4243;49.296;11.348;2023-06-22T12:58:04;103.27;;;11.73;;
8411;SDS011;4243;49.296;11.348;2023-06-22T13:00:32;102.97;;;10.90;;
8411;SDS011;4243;49.296;11.348;2023-06-22T13:02:59;102.57;;;9.97;;
8411;SDS011;4243;49.296;11.348;2023-06-22T13:05:27;102.10;;;8.07;;
8411;SDS011;4243;49.296;11.348;2023-06-22T13:07:54;103.00;;;8.90;;
8411;SDS011;4243;49.296;11.348;2023-06-22T13:10:22;102.27;;;8.20;;
8411;SDS011;4243;49.296;11.348;2023-06-22T13:12:49;103.40;;;8.37;;
8411;SDS011;4243;49.296;11.348;2023-06-22T13:15:16;103.40;;;8.13;;
8411;SDS011;4243;49.296;11.348;2023-06-22T13:17:44;103.73;;;9.40;;
8411;SDS011;4243;49.296;11.348;2023-06-22T13:20:11;104.10;;;9.60;;
8411;SDS011;4243;49.296;11.348;2023-06-22T13:22:39;103.87;;;10.50;;
8411;SDS011;4243;49.296;11.348;2023-06-22T13:25:09;101.90;;;8.13;;
8411;SDS011;4243;49.296;11.348;2023-06-22T13:27:39;102.10;;;6.53;;
8411;SDS011;4243;49.296;11.348;2023-06-22T13:30:08;102.27;;;6.17;;
8411;SDS011;4243;49.296;11.348;2023-06-22T13:32:40;101.97;;;5.10;;
8411;SDS011;4243;49.296;11.348;2023-06-22T13:35:09;102.77;;;4.77;;
8411;SDS011;4243;49.296;11.348;2023-06-22T13:37:37;103.07;;;4.50;;
8411;SDS011;4243;49.296;11.348;2023-06-22T13:40:05;103.90;;;3.13;;
8411;SDS011;4243;49.296;11.348;2023-06-22T13:42:34;102.67;;;2.40;;
8411;SDS011;4243;49.296;11.348;2023-06-22T13:45:02;102.07;;;2.20;;
8411;SDS011;4243;49.296;11.348;2023-06-22T13:47:31;102.87;;;2.17;;
8411;SDS011;4243;49.296;11.348;2023-06-22T13:49:58;104.17;;;2.20;;
8411;SDS011;4243;49.296;11.348;2023-06-22T13:52:26;103.57;;;2.10;;
8411;SDS011;4243;49.296;11.348;2023-06-22T13:54:53;103.67;;;2.07;;
8411;SDS011;4243;49.296;11.348;2023-06-22T13:57:21;104.40;;;2.50;;
8411;SDS011;4243;49.296;11.348;2023-06-22T13:59:48;104.63;;;3.07;;
8411;SDS011;4243;49.296;11.348;2023-06-22T14:02:16;104.07;;;3.23;;
8411;SDS011;4243;49.296;11.348;2023-06-22T14:04:43;104.50;;;3.27;;
8411;SDS011;4243;49.296;11.348;2023-06-22T14:07:10;102.70;;;2.50;;
8411;SDS011;4243;49.296;11.348;2023-06-22T14:09:41;102.47;;;1.83;;
8411;SDS011;4243;49.296;11.348;2023-06-22T14:12:09;102.30;;;1.70;;
8411;SDS011;4243;49.296;11.348;2023-06-22T14:14:37;101.63;;;1.70;;
8411;SDS011;4243;49.296;11.348;2023-06-22T14:17:05;102.07;;;2.20;;
8411;SDS011;4243;49.296;11.348;2023-06-22T14:19:32;102.10;;;2.40;;
8411;SDS011;4243;49.296;11.348;2023-06-22T14:22:00;101.80;;;2.70;;
8411;SDS011;4243;49.296;11.348;2023-06-22T14:24:28;101.40;;;2.63;;
8411;SDS011;4243;49.296;11.348;2023-06-22T14:26:56;101.57;;;2.53;;
8411;SDS011;4243;49.296;11.348;2023-06-22T14:29:24;102.60;;;2.70;;
8411;SDS011;4243;49.296;11.348;2023-06-22T14:31:52;102.20;;;2.90;;
8411;SDS011;4243;49.296;11.348;2023-06-22T14:34:20;101.97;;;2.40;;
8411;SDS011;4243;49.296;11.348;2023-06-22T14:36:47;103.03;;;2.27;;
8411;SDS011;4243;49.296;11.348;2023-06-22T14:39:15;103.20;;;2.30;;
8411;SDS011;4243;49.296;11.348;2023-06-22T14:41:43;102.33;;;2.20;;
8411;SDS011;4243;49.296;11.348;2023-06-22T14:44:10;103.33;;;2.50;;
8411;SDS011;4243;49.296;11.348;2023-06-22T14:46:38;104.17;;;2.50;;
8411;SDS011;4243;49.296;11.348;2023-06-22T14:49:05;104.37;;;3.07;;
8411;SDS011;4243;49.296;11.348;2023-06-22T14:51:33;106.40;;;4.37;;
8411;SDS011;4243;49.296;11.348;2023-06-22T14:54:00;105.97;;;4.30;;
8411;SDS011;4243;49.296;11.348;2023-06-22T14:56:28;107.03;;;3.50;;
8411;SDS011;4243;49.296;11.348;2023-06-22T14:58:58;108.00;;;4.67;;